createdAt,value
2016-03-09T00:00:26.894Z,0
2016-03-09T00:01:26.850Z,0
2016-03-09T00:02:26.852Z,0
2016-03-09T00:03:26.807Z,0
2016-03-09T00:04:26.827Z,0
2016-03-09T00:05:26.782Z,0
2016-03-09T00:06:26.722Z,0
2016-03-09T00:07:26.755Z,0
2016-03-09T00:08:26.680Z,0
2016-03-09T00:09:26.699Z,0
2016-03-09T00:10:26.655Z,0
2016-03-09T00:11:26.657Z,0
2016-03-09T00:12:26.598Z,0
2016-03-09T00:13:26.569Z,0
2016-03-09T00:14:26.556Z,0
2016-03-09T00:15:26.621Z,0
2016-03-09T00:16:26.499Z,0
2016-03-09T00:17:26.329Z,0
2016-03-09T00:18:26.442Z,0
2016-03-09T00:19:26.429Z,0
2016-03-09T00:20:26.400Z,0
2016-03-09T00:21:26.387Z,0
2016-03-09T00:22:26.358Z,0
2016-03-09T00:23:26.345Z,0
2016-03-09T00:24:26.301Z,0
2016-03-09T00:25:26.273Z,0
2016-03-09T00:26:26.276Z,0
2016-03-09T00:27:26.263Z,0
2016-03-09T00:28:26.250Z,0
2016-03-09T00:29:26.190Z,0
2016-03-09T00:30:26.208Z,0
2016-03-09T00:31:26.186Z,0
2016-03-09T00:32:26.126Z,0
2016-03-09T00:33:26.129Z,0
2016-03-09T00:34:26.069Z,0
2016-03-09T00:35:26.072Z,0
2016-03-09T00:36:26.028Z,0
2016-03-09T00:37:25.999Z,0
2016-03-09T00:38:25.986Z,0
2016-03-09T00:39:26.114Z,0
2016-03-09T00:40:25.928Z,0
2016-03-09T00:41:25.916Z,0
2016-03-09T00:42:25.903Z,0
2016-03-09T00:43:25.843Z,0
2016-03-09T00:44:25.846Z,0
2016-03-09T00:45:25.817Z,0
2016-03-09T00:46:25.773Z,0
2016-03-09T00:47:25.760Z,0
2016-03-09T00:48:25.778Z,0
2016-03-09T00:49:25.735Z,0
2016-03-09T00:50:25.971Z,0
2016-03-09T00:51:25.677Z,0
2016-03-09T00:52:25.632Z,0
2016-03-09T00:53:25.620Z,0
2016-03-09T00:54:25.591Z,0
2016-03-09T00:55:25.673Z,0
2016-03-09T00:56:25.565Z,0
2016-03-09T00:57:25.521Z,0
2016-03-09T00:58:25.493Z,0
2016-03-09T00:59:25.479Z,0
2016-03-09T01:00:25.467Z,0
2016-03-09T01:01:25.439Z,0
2016-03-09T01:02:25.409Z,0
2016-03-09T01:03:25.397Z,0
2016-03-09T01:04:25.337Z,0
2016-03-09T01:05:25.371Z,0
2016-03-09T01:06:25.143Z,0
2016-03-09T01:07:25.276Z,0
2016-03-09T01:08:25.262Z,0
2016-03-09T01:09:25.234Z,0
2016-03-09T01:10:25.206Z,0
2016-03-09T01:11:25.177Z,0
2016-03-09T01:12:25.179Z,0
2016-03-09T01:13:25.120Z,0
2016-03-09T01:14:25.107Z,0
2016-03-09T01:15:25.094Z,0
2016-03-09T01:16:25.065Z,0
2016-03-09T01:17:25.037Z,0
2016-03-09T01:18:25.008Z,0
2016-03-09T01:19:25.011Z,0
2016-03-09T01:20:24.966Z,0
2016-03-09T01:21:24.970Z,0
2016-03-09T01:22:24.925Z,0
2016-03-09T01:23:24.897Z,0
2016-03-09T01:24:24.884Z,0
2016-03-09T01:25:24.855Z,0
2016-03-09T01:26:24.889Z,0
2016-03-09T01:27:24.845Z,0
2016-03-09T01:28:24.801Z,0
2016-03-09T01:29:24.757Z,0
2016-03-09T01:30:24.837Z,0
2016-03-09T01:31:24.700Z,0
2016-03-09T01:32:24.702Z,0
2016-03-09T01:33:24.674Z,0
2016-03-09T01:34:24.630Z,0
2016-03-09T01:35:24.616Z,0
2016-03-09T01:36:24.713Z,0
2016-03-09T01:37:24.576Z,0
2016-03-09T01:38:24.531Z,0
2016-03-09T01:39:24.533Z,0
2016-03-09T01:40:24.536Z,0
2016-03-09T01:41:24.461Z,0
2016-03-09T01:42:24.495Z,0
2016-03-09T01:43:24.420Z,0
2016-03-09T01:44:24.390Z,0
2016-03-09T01:45:24.378Z,0
2016-03-09T01:46:24.349Z,0
2016-03-09T01:47:24.587Z,0
2016-03-09T01:48:24.308Z,0
2016-03-09T01:49:24.294Z,0
2016-03-09T01:50:24.235Z,0
2016-03-09T01:51:24.222Z,0
2016-03-09T01:52:24.287Z,0
2016-03-09T01:53:24.212Z,0
2016-03-09T01:54:24.136Z,0
2016-03-09T01:55:24.139Z,0
2016-03-09T01:56:24.110Z,0
2016-03-09T01:57:24.083Z,0
2016-03-09T01:58:24.201Z,0
2016-03-09T01:59:24.114Z,0
2016-03-09T02:00:23.933Z,0
2016-03-09T02:01:25.088Z,0
2016-03-09T02:02:23.996Z,0
2016-03-09T02:03:23.623Z,0
2016-03-09T02:04:23.610Z,0
2016-03-09T02:05:23.567Z,0
2016-03-09T02:06:23.542Z,0
2016-03-09T02:07:23.687Z,0
2016-03-09T02:08:23.861Z,0
2016-03-09T02:09:23.799Z,0
2016-03-09T02:10:24.808Z,0
2016-03-09T02:11:23.814Z,0
2016-03-09T02:12:23.552Z,0
2016-03-09T02:13:23.696Z,0
2016-03-09T02:14:23.652Z,0
2016-03-09T02:15:23.639Z,0
2016-03-09T02:16:23.610Z,0
2016-03-09T02:17:23.630Z,0
2016-03-09T02:18:22.835Z,0
2016-03-09T02:19:23.557Z,0
2016-03-09T02:20:23.496Z,0
2016-03-09T02:21:23.484Z,0
2016-03-09T02:22:23.487Z,0
2016-03-09T02:23:23.410Z,0
2016-03-09T02:24:23.413Z,0
2016-03-09T02:25:23.385Z,0
2016-03-09T02:26:23.372Z,0
2016-03-09T02:27:23.328Z,0
2016-03-09T02:28:23.315Z,0
2016-03-09T02:29:23.270Z,0
2016-03-09T02:30:23.273Z,0
2016-03-09T02:31:23.229Z,0
2016-03-09T02:32:23.217Z,0
2016-03-09T02:33:23.547Z,0
2016-03-09T02:34:23.174Z,0
2016-03-09T02:35:23.147Z,0
2016-03-09T02:36:23.117Z,0
2016-03-09T02:37:23.073Z,0
2016-03-09T02:38:23.248Z,0
2016-03-09T02:39:23.032Z,0
2016-03-09T02:40:23.019Z,0
2016-03-09T02:41:22.974Z,0
2016-03-09T02:42:23.009Z,0
2016-03-09T02:43:22.949Z,0
2016-03-09T02:44:22.920Z,0
2016-03-09T02:45:22.892Z,0
2016-03-09T02:46:22.863Z,0
2016-03-09T02:47:22.835Z,0
2016-03-09T02:48:22.838Z,0
2016-03-09T02:49:23.059Z,0
2016-03-09T02:50:22.765Z,0
2016-03-09T02:51:22.782Z,0
2016-03-09T02:52:22.724Z,0
2016-03-09T02:53:22.773Z,0
2016-03-09T02:54:22.759Z,0
2016-03-09T02:55:22.653Z,0
2016-03-09T02:56:22.624Z,0
2016-03-09T02:57:22.595Z,0
2016-03-09T02:58:22.584Z,0
2016-03-09T02:59:22.570Z,0
2016-03-09T03:00:22.526Z,0
2016-03-09T03:01:22.512Z,0
2016-03-09T03:02:22.469Z,0
2016-03-09T03:03:22.440Z,0
2016-03-09T03:04:22.411Z,0
2016-03-09T03:05:22.398Z,0
2016-03-09T03:06:22.386Z,0
2016-03-09T03:07:22.357Z,0
2016-03-09T03:08:22.344Z,0
2016-03-09T03:09:22.316Z,0
2016-03-09T03:10:22.272Z,0
2016-03-09T03:11:22.305Z,0
2016-03-09T03:12:22.246Z,0
2016-03-09T03:13:22.202Z,0
2016-03-09T03:14:22.188Z,0
2016-03-09T03:15:22.410Z,0
2016-03-09T03:16:22.163Z,0
2016-03-09T03:17:22.150Z,0
2016-03-09T03:18:22.090Z,0
2016-03-09T03:19:22.046Z,0
2016-03-09T03:20:22.018Z,0
2016-03-09T03:21:22.020Z,0
2016-03-09T03:22:21.976Z,0
2016-03-09T03:23:22.057Z,0
2016-03-09T03:24:21.934Z,0
2016-03-09T03:25:21.921Z,0
2016-03-09T03:26:21.876Z,0
2016-03-09T03:27:21.708Z,0
2016-03-09T03:28:21.820Z,0
2016-03-09T03:29:21.822Z,0
2016-03-09T03:30:22.028Z,0
2016-03-09T03:31:21.750Z,0
2016-03-09T03:32:21.752Z,0
2016-03-09T03:33:21.693Z,0
2016-03-09T03:34:21.680Z,0
2016-03-09T03:35:21.792Z,0
2016-03-09T03:36:21.638Z,0
2016-03-09T03:37:21.594Z,0
2016-03-09T03:38:21.644Z,0
2016-03-09T03:39:21.552Z,0
2016-03-09T03:40:21.556Z,0
2016-03-09T03:41:21.495Z,0
2016-03-09T03:42:21.483Z,0
2016-03-09T03:43:21.500Z,0
2016-03-09T03:44:21.441Z,0
2016-03-09T03:45:21.413Z,0
2016-03-09T03:46:21.665Z,0
2016-03-09T03:47:21.355Z,0
2016-03-09T03:48:21.358Z,0
2016-03-09T03:49:21.548Z,0
2016-03-09T03:50:21.286Z,0
2016-03-09T03:51:21.429Z,0
2016-03-09T03:52:21.229Z,0
2016-03-09T03:53:21.215Z,0
2016-03-09T03:54:21.218Z,0
2016-03-09T03:55:21.174Z,0
2016-03-09T03:56:21.129Z,0
2016-03-09T03:57:21.163Z,0
2016-03-09T03:58:21.073Z,0
2016-03-09T03:59:21.076Z,0
2016-03-09T04:00:21.078Z,0
2016-03-09T04:01:21.018Z,0
2016-03-09T04:02:21.005Z,0
2016-03-09T04:03:20.992Z,0
2016-03-09T04:04:20.931Z,0
2016-03-09T04:05:20.967Z,0
2016-03-09T04:06:20.891Z,0
2016-03-09T04:07:20.878Z,0
2016-03-09T04:08:20.896Z,0
2016-03-09T04:09:20.852Z,0
2016-03-09T04:10:20.792Z,0
2016-03-09T04:11:20.779Z,0
2016-03-09T04:12:20.736Z,0
2016-03-09T04:13:20.706Z,0
2016-03-09T04:14:20.677Z,0
2016-03-09T04:15:20.680Z,0
2016-03-09T04:16:20.652Z,0
2016-03-09T04:17:20.624Z,0
2016-03-09T04:18:20.579Z,0
2016-03-09T04:19:20.566Z,0
2016-03-09T04:20:20.538Z,0
2016-03-09T04:21:20.368Z,0
2016-03-09T04:22:20.497Z,0
2016-03-09T04:23:20.468Z,0
2016-03-09T04:24:20.471Z,0
2016-03-09T04:25:20.426Z,0
2016-03-09T04:26:20.429Z,0
2016-03-09T04:27:20.401Z,0
2016-03-09T04:28:20.349Z,0
2016-03-09T04:29:20.308Z,0
2016-03-09T04:30:20.267Z,0
2016-03-09T04:31:20.227Z,0
2016-03-09T04:32:20.218Z,0
2016-03-09T04:33:20.183Z,0
2016-03-09T04:34:20.150Z,0
2016-03-09T04:35:20.117Z,0
2016-03-09T04:36:19.912Z,0
2016-03-09T04:37:20.239Z,0
2016-03-09T04:38:20.005Z,0
2016-03-09T04:39:20.006Z,0
2016-03-09T04:40:19.991Z,0
2016-03-09T04:41:19.931Z,0
2016-03-09T04:42:19.932Z,0
2016-03-09T04:43:19.902Z,0
2016-03-09T04:44:19.857Z,0
2016-03-09T04:45:19.843Z,0
2016-03-09T04:46:19.845Z,0
2016-03-09T04:49:14.210Z,0
2016-03-09T04:49:26.757Z,0
2016-03-09T04:50:27.025Z,0
2016-03-09T04:51:26.715Z,0
2016-03-09T04:52:26.702Z,0
2016-03-09T04:53:26.704Z,0
2016-03-09T04:54:26.660Z,0
2016-03-09T04:55:26.647Z,0
2016-03-09T04:56:26.588Z,0
2016-03-09T04:57:57.855Z,0
2016-03-09T04:58:26.390Z,0
2016-03-09T04:59:26.376Z,0
2016-03-09T05:00:26.380Z,0
2016-03-09T05:01:26.320Z,0
2016-03-09T05:02:26.323Z,0
2016-03-09T05:03:26.263Z,0
2016-03-09T05:04:26.249Z,0
2016-03-09T05:05:26.268Z,0
2016-03-09T05:06:26.026Z,0
2016-03-09T05:07:26.201Z,0
2016-03-09T05:08:26.141Z,0
2016-03-09T05:09:26.112Z,0
2016-03-09T05:10:26.116Z,0
2016-03-09T05:11:26.071Z,0
2016-03-09T05:12:26.059Z,0
2016-03-09T05:13:26.030Z,0
2016-03-09T05:14:26.001Z,0
2016-03-09T05:15:26.004Z,0
2016-03-09T05:16:25.959Z,0
2016-03-09T05:17:25.931Z,0
2016-03-09T05:18:25.918Z,0
2016-03-09T05:19:25.874Z,0
2016-03-09T05:20:25.861Z,0
2016-03-09T05:21:25.848Z,0
2016-03-09T05:22:25.648Z,0
2016-03-09T05:23:25.806Z,0
2016-03-09T05:24:25.747Z,0
2016-03-09T05:25:25.718Z,0
2016-03-09T05:26:25.705Z,0
2016-03-09T05:27:25.708Z,0
2016-03-09T05:28:25.648Z,0
2016-03-09T05:29:25.651Z,0
2016-03-09T05:30:25.592Z,0
2016-03-09T05:31:25.563Z,0
2016-03-09T05:32:25.566Z,0
2016-03-09T05:33:25.521Z,0
2016-03-09T05:34:25.508Z,0
2016-03-09T05:35:25.496Z,0
2016-03-09T05:36:25.435Z,0
2016-03-09T05:37:25.454Z,0
2016-03-09T05:38:25.393Z,0
2016-03-09T05:39:25.366Z,0
2016-03-09T05:40:25.385Z,0
2016-03-09T05:41:25.543Z,0
2016-03-09T05:42:25.327Z,0
2016-03-09T05:43:25.330Z,0
2016-03-09T05:44:25.254Z,0
2016-03-09T05:45:25.257Z,0
2016-03-09T05:46:25.259Z,0
2016-03-09T05:47:25.168Z,0
2016-03-09T05:48:25.155Z,0
2016-03-09T05:49:25.158Z,0
2016-03-09T05:50:25.130Z,0
2016-03-09T05:51:25.054Z,0
2016-03-09T05:52:25.025Z,0
2016-03-09T05:53:25.028Z,0
2016-03-09T05:54:24.984Z,0
2016-03-09T05:55:24.986Z,0
2016-03-09T05:56:24.942Z,0
2016-03-09T05:57:25.101Z,0
2016-03-09T05:58:24.901Z,0
2016-03-09T05:59:24.857Z,0
2016-03-09T06:00:24.845Z,0
2016-03-09T06:01:24.816Z,0
2016-03-09T06:02:24.833Z,0
2016-03-09T06:03:24.786Z,0
2016-03-09T06:04:24.743Z,0
2016-03-09T06:05:24.715Z,0
2016-03-09T06:06:24.670Z,0
2016-03-09T06:07:24.705Z,0
2016-03-09T06:08:24.644Z,0
2016-03-09T06:09:24.631Z,0
2016-03-09T06:10:24.603Z,0
2016-03-09T06:11:24.575Z,0
2016-03-09T06:12:24.531Z,0
2016-03-09T06:13:24.517Z,0
2016-03-09T06:14:24.974Z,0
2016-03-09T06:15:24.460Z,0
2016-03-09T06:16:24.432Z,0
2016-03-09T06:17:24.434Z,0
2016-03-09T06:18:24.391Z,0
2016-03-09T06:19:24.377Z,0
2016-03-09T06:20:24.349Z,0
2016-03-09T06:21:24.305Z,0
2016-03-09T06:22:24.291Z,0
2016-03-09T06:23:24.248Z,0
2016-03-09T06:24:24.296Z,0
2016-03-09T06:25:24.253Z,0
2016-03-09T06:26:24.037Z,0
2016-03-09T06:27:24.165Z,0
2016-03-09T06:28:24.137Z,0
2016-03-09T06:29:24.123Z,0
2016-03-09T06:30:24.095Z,0
2016-03-09T06:31:24.065Z,0
2016-03-09T06:32:24.240Z,0
2016-03-09T06:33:24.024Z,0
2016-03-09T06:34:23.996Z,5
2016-03-09T06:35:23.984Z,5
2016-03-09T06:36:23.954Z,5
2016-03-09T06:37:23.926Z,5
2016-03-09T06:38:23.897Z,5
2016-03-09T06:39:23.884Z,5
2016-03-09T06:40:23.808Z,5
2016-03-09T06:41:23.796Z,5
2016-03-09T06:42:23.783Z,5
2016-03-09T06:43:24.005Z,5
2016-03-09T06:44:23.758Z,5
2016-03-09T06:45:23.760Z,5
2016-03-09T06:46:23.700Z,5
2016-03-09T06:47:23.655Z,5
2016-03-09T06:48:23.768Z,5
2016-03-09T06:49:23.598Z,5
2016-03-09T06:50:23.586Z,5
2016-03-09T06:51:23.574Z,5
2016-03-09T06:52:23.544Z,5
2016-03-09T06:53:23.516Z,5
2016-03-09T06:54:23.534Z,5
2016-03-09T06:55:23.459Z,5
2016-03-09T06:56:23.414Z,5
2016-03-09T06:57:23.401Z,5
2016-03-09T06:58:23.374Z,5
2016-03-09T06:59:23.360Z,5
2016-03-09T07:00:23.348Z,5
2016-03-09T07:01:23.350Z,5
2016-03-09T07:02:23.289Z,5
2016-03-09T07:03:23.276Z,5
2016-03-09T07:04:23.218Z,5
2016-03-09T07:05:23.236Z,5
2016-03-09T07:06:23.239Z,5
2016-03-09T07:07:23.131Z,5
2016-03-09T07:08:23.134Z,5
2016-03-09T07:09:23.152Z,5
2016-03-09T07:10:23.108Z,5
2016-03-09T07:11:23.065Z,5
2016-03-09T07:12:23.067Z,5
2016-03-09T07:13:22.992Z,5
2016-03-09T07:14:22.978Z,5
2016-03-09T07:15:22.981Z,5
2016-03-09T07:16:22.936Z,5
2016-03-09T07:17:22.924Z,5
2016-03-09T07:18:22.879Z,5
2016-03-09T07:19:22.867Z,5
2016-03-09T07:20:22.808Z,5
2016-03-09T07:21:22.794Z,5
2016-03-09T07:22:22.766Z,5
2016-03-09T07:23:22.768Z,5
2016-03-09T07:24:22.818Z,5
2016-03-09T07:25:22.726Z,5
2016-03-09T07:26:22.682Z,5
2016-03-09T07:27:22.655Z,5
2016-03-09T07:28:22.641Z,5
2016-03-09T07:29:22.613Z,5
2016-03-09T07:30:22.615Z,10
2016-03-09T07:31:22.571Z,10
2016-03-09T07:32:22.559Z,10
2016-03-09T07:33:22.561Z,10
2016-03-09T07:34:22.657Z,10
2016-03-09T07:35:21.707Z,10
2016-03-09T07:36:22.459Z,10
2016-03-09T07:37:22.400Z,10
2016-03-09T07:38:22.402Z,10
2016-03-09T07:39:22.405Z,10
2016-03-09T07:40:22.346Z,10
2016-03-09T07:41:22.333Z,10
2016-03-09T07:42:22.288Z,10
2016-03-09T07:43:22.259Z,10
2016-03-09T07:44:22.215Z,10
2016-03-09T07:45:22.484Z,10
2016-03-09T07:46:22.205Z,10
2016-03-09T07:47:22.130Z,10
2016-03-09T07:48:22.133Z,10
2016-03-09T07:49:22.135Z,10
2016-03-09T07:50:22.232Z,10
2016-03-09T07:51:22.047Z,10
2016-03-09T07:52:22.097Z,10
2016-03-09T07:53:21.990Z,10
2016-03-09T07:54:21.993Z,10
2016-03-09T07:55:21.963Z,10
2016-03-09T07:56:21.919Z,10
2016-03-09T07:57:21.907Z,10
2016-03-09T07:58:21.894Z,10
2016-03-09T07:59:21.849Z,10
2016-03-09T08:00:21.852Z,10
2016-03-09T08:01:21.807Z,10
2016-03-09T08:02:21.779Z,10
2016-03-09T08:03:21.798Z,10
2016-03-09T08:04:21.723Z,10
2016-03-09T08:05:21.709Z,10
2016-03-09T08:06:21.696Z,10
2016-03-09T08:07:21.653Z,10
2016-03-09T08:08:21.623Z,10
2016-03-09T08:09:21.517Z,10
2016-03-09T08:10:21.598Z,10
2016-03-09T08:11:21.538Z,10
2016-03-09T08:12:21.541Z,10
2016-03-09T08:13:21.528Z,10
2016-03-09T08:14:21.467Z,10
2016-03-09T08:15:21.455Z,10
2016-03-09T08:16:21.473Z,10
2016-03-09T08:17:21.398Z,10
2016-03-09T08:18:21.416Z,10
2016-03-09T08:19:21.341Z,10
2016-03-09T08:20:21.343Z,10
2016-03-09T08:21:21.346Z,10
2016-03-09T08:22:21.286Z,10
2016-03-09T08:23:21.274Z,10
2016-03-09T08:24:21.229Z,10
2016-03-09T08:25:21.341Z,10
2016-03-09T08:26:21.172Z,10
2016-03-09T08:27:21.190Z,10
2016-03-09T08:28:21.177Z,10
2016-03-09T08:29:21.102Z,10
2016-03-09T08:30:21.073Z,10
2016-03-09T08:31:21.060Z,10
2016-03-09T08:32:21.032Z,10
2016-03-09T08:33:21.004Z,10
2016-03-09T08:34:20.975Z,10
2016-03-09T08:35:20.946Z,15
2016-03-09T08:36:21.120Z,15
2016-03-09T08:37:20.904Z,15
2016-03-09T08:38:20.877Z,15
2016-03-09T08:39:20.864Z,15
2016-03-09T08:40:20.850Z,15
2016-03-09T08:41:20.822Z,15
2016-03-09T08:42:20.761Z,15
2016-03-09T08:43:20.781Z,15
2016-03-09T08:44:20.893Z,15
2016-03-09T08:45:20.708Z,15
2016-03-09T08:46:20.694Z,15
2016-03-09T08:47:20.650Z,15
2016-03-09T08:48:20.653Z,15
2016-03-09T08:49:20.641Z,15
2016-03-09T08:50:20.581Z,15
2016-03-09T08:51:20.567Z,15
2016-03-09T08:52:20.524Z,15
2016-03-09T08:53:20.355Z,15
2016-03-09T08:54:20.482Z,15
2016-03-09T08:55:20.469Z,15
2016-03-09T08:56:20.424Z,15
2016-03-09T08:57:20.443Z,15
2016-03-09T08:58:20.383Z,15
2016-03-09T08:59:20.370Z,15
2016-03-09T09:00:20.310Z,15
2016-03-09T09:01:20.298Z,15
2016-03-09T09:02:20.301Z,15
2016-03-09T09:03:20.256Z,15
2016-03-09T09:04:20.259Z,15
2016-03-09T09:05:20.261Z,15
2016-03-09T09:06:20.218Z,15
2016-03-09T09:07:20.173Z,15
2016-03-09T09:08:20.113Z,15
2016-03-09T09:09:20.115Z,15
2016-03-09T09:10:20.087Z,15
2016-03-09T09:11:20.043Z,15
2016-03-09T09:12:20.031Z,15
2016-03-09T09:13:20.049Z,15
2016-03-09T09:14:19.989Z,15
2016-03-09T09:15:19.945Z,15
2016-03-09T09:16:19.932Z,15
2016-03-09T09:17:19.903Z,15
2016-03-09T09:18:19.859Z,15
2016-03-09T09:19:19.861Z,15
2016-03-09T09:20:19.849Z,15
2016-03-09T09:21:19.836Z,15
2016-03-09T09:22:20.041Z,15
2016-03-09T09:23:19.794Z,15
2016-03-09T09:24:19.766Z,15
2016-03-09T09:25:19.721Z,15
2016-03-09T09:26:19.677Z,15
2016-03-09T09:27:19.727Z,15
2016-03-09T09:28:19.621Z,20
2016-03-09T09:29:19.623Z,15
2016-03-09T09:30:19.579Z,15
2016-03-09T09:31:19.581Z,15
2016-03-09T09:32:19.553Z,15
2016-03-09T09:33:19.524Z,15
2016-03-09T09:34:19.512Z,15
2016-03-09T09:35:19.451Z,15
2016-03-09T09:36:19.454Z,15
2016-03-09T09:37:19.254Z,15
2016-03-09T09:38:19.601Z,15
2016-03-09T09:39:19.400Z,15
2016-03-09T09:40:19.324Z,20
2016-03-09T09:41:19.390Z,20
2016-03-09T09:42:19.298Z,15
2016-03-09T09:43:19.286Z,15
2016-03-09T09:44:19.273Z,20
2016-03-09T09:45:19.213Z,20
2016-03-09T09:46:19.215Z,20
2016-03-09T09:47:19.203Z,15
2016-03-09T09:48:19.142Z,20
2016-03-09T09:49:19.114Z,20
2016-03-09T09:50:19.086Z,20
2016-03-09T09:51:19.088Z,20
2016-03-09T09:52:19.045Z,20
2016-03-09T09:53:19.250Z,20
2016-03-09T09:54:18.987Z,20
2016-03-09T09:55:18.958Z,20
2016-03-09T09:56:18.977Z,20
2016-03-09T09:57:18.933Z,20
2016-03-09T09:58:18.904Z,20
2016-03-09T09:59:18.860Z,20
2016-03-09T10:00:18.846Z,20
2016-03-09T10:01:18.835Z,20
2016-03-09T10:02:18.790Z,20
2016-03-09T10:03:18.761Z,20
2016-03-09T10:04:18.796Z,20
2016-03-09T10:05:18.720Z,20
2016-03-09T10:06:18.807Z,20
2016-03-09T10:07:18.778Z,20
2016-03-09T10:08:18.672Z,20
2016-03-09T10:09:18.675Z,20
2016-03-09T10:10:18.614Z,20
2016-03-09T10:11:18.586Z,20
2016-03-09T10:12:18.542Z,20
2016-03-09T10:13:18.545Z,20
2016-03-09T10:14:18.500Z,20
2016-03-09T10:15:18.503Z,20
2016-03-09T10:16:18.475Z,20
2016-03-09T10:17:18.447Z,20
2016-03-09T10:18:18.418Z,20
2016-03-09T10:19:18.373Z,20
2016-03-09T10:20:18.407Z,20
2016-03-09T10:21:18.316Z,20
2016-03-09T10:22:18.304Z,20
2016-03-09T10:23:18.306Z,20
2016-03-09T10:24:18.513Z,25
2016-03-09T10:25:18.265Z,30
2016-03-09T10:26:18.267Z,25
2016-03-09T10:27:18.270Z,25
2016-03-09T10:28:18.163Z,25
2016-03-09T10:29:18.229Z,25
2016-03-09T10:30:19.231Z,25
2016-03-09T10:31:18.765Z,25
2016-03-09T10:32:18.987Z,25
2016-03-09T10:33:18.239Z,25
2016-03-09T10:34:19.226Z,25
2016-03-09T10:35:18.667Z,25
2016-03-09T10:36:17.966Z,25
2016-03-09T10:37:17.969Z,25
2016-03-09T10:38:17.939Z,25
2016-03-09T10:39:17.943Z,25
2016-03-09T10:40:18.117Z,25
2016-03-09T10:41:17.855Z,25
2016-03-09T10:42:18.091Z,25
2016-03-09T10:43:18.375Z,25
2016-03-09T10:44:17.785Z,25
2016-03-09T10:45:17.771Z,25
2016-03-09T10:46:17.744Z,25
2016-03-09T10:47:17.699Z,25
2016-03-09T10:48:17.686Z,25
2016-03-09T10:49:17.688Z,25
2016-03-09T10:50:17.644Z,25
2016-03-09T10:51:17.647Z,25
2016-03-09T10:52:17.696Z,25
2016-03-09T10:53:17.543Z,30
2016-03-09T10:54:17.561Z,30
2016-03-09T10:55:17.549Z,30
2016-03-09T10:56:17.488Z,30
2016-03-09T10:57:17.460Z,30
2016-03-09T10:58:17.416Z,30
2016-03-09T10:59:17.419Z,30
2016-03-09T11:00:17.390Z,30
2016-03-09T11:01:17.392Z,30
2016-03-09T11:02:17.349Z,30
2016-03-09T11:03:17.289Z,30
2016-03-09T11:04:17.276Z,30
2016-03-09T11:05:17.309Z,30
2016-03-09T11:06:17.234Z,30
2016-03-09T11:07:17.206Z,30
2016-03-09T11:08:17.177Z,30
2016-03-09T11:09:17.164Z,35
2016-03-09T11:10:17.261Z,35
2016-03-09T11:11:17.108Z,35
2016-03-09T11:12:17.110Z,35
2016-03-09T11:13:17.081Z,35
2016-03-09T11:14:17.053Z,35
2016-03-09T11:15:17.086Z,35
2016-03-09T11:16:16.996Z,35
2016-03-09T11:17:16.966Z,35
2016-03-09T11:18:16.969Z,35
2016-03-09T11:19:16.925Z,35
2016-03-09T11:20:16.928Z,35
2016-03-09T11:21:17.431Z,35
2016-03-09T11:22:16.855Z,35
2016-03-09T11:23:16.842Z,35
2016-03-09T11:24:16.845Z,35
2016-03-09T11:25:16.895Z,35
2016-03-09T11:26:16.944Z,35
2016-03-09T11:27:16.728Z,35
2016-03-09T11:28:16.762Z,35
2016-03-09T11:29:16.702Z,35
2016-03-09T11:30:16.674Z,35
2016-03-09T11:31:16.676Z,35
2016-03-09T11:32:16.632Z,35
2016-03-09T11:33:16.604Z,35
2016-03-09T11:34:16.575Z,35
2016-03-09T11:35:16.547Z,35
2016-03-09T11:36:16.534Z,35
2016-03-09T11:37:16.474Z,40
2016-03-09T11:38:16.476Z,40
2016-03-09T11:39:16.478Z,35
2016-03-09T11:40:16.436Z,40
2016-03-09T11:41:16.391Z,40
2016-03-09T11:42:16.425Z,40
2016-03-09T11:43:16.381Z,40
2016-03-09T11:44:16.352Z,40
2016-03-09T11:45:16.324Z,40
2016-03-09T11:46:16.279Z,40
2016-03-09T11:47:16.267Z,40
2016-03-09T11:48:16.238Z,40
2016-03-09T11:49:16.210Z,40
2016-03-09T11:50:16.321Z,40
2016-03-09T11:51:16.340Z,40
2016-03-09T11:52:16.171Z,45
2016-03-09T11:53:16.141Z,45
2016-03-09T11:54:16.083Z,45
2016-03-09T11:55:16.116Z,45
2016-03-09T11:56:16.041Z,50
2016-03-09T11:57:16.012Z,50
2016-03-09T11:58:15.577Z,50
2016-03-09T11:59:15.970Z,50
2016-03-09T12:00:16.004Z,50
2016-03-09T12:01:15.975Z,50
2016-03-09T12:02:16.057Z,55
2016-03-09T12:03:15.918Z,55
2016-03-09T12:04:15.859Z,55
2016-03-09T12:05:15.924Z,55
2016-03-09T12:06:15.833Z,55
2016-03-09T12:07:15.836Z,55
2016-03-09T12:08:15.745Z,55
2016-03-09T12:09:15.748Z,55
2016-03-09T12:10:15.703Z,55
2016-03-09T12:11:15.705Z,55
2016-03-09T12:12:15.927Z,55
2016-03-09T12:13:15.680Z,55
2016-03-09T12:14:15.636Z,55
2016-03-09T12:15:15.608Z,55
2016-03-09T12:16:15.469Z,55
2016-03-09T12:17:15.613Z,55
2016-03-09T12:18:15.584Z,55
2016-03-09T12:19:15.493Z,60
2016-03-09T12:20:15.496Z,60
2016-03-09T12:21:15.499Z,60
2016-03-09T12:22:15.423Z,60
2016-03-09T12:23:15.660Z,60
2016-03-09T12:24:15.460Z,60
2016-03-09T12:25:15.260Z,60
2016-03-09T12:26:15.388Z,60
2016-03-09T12:27:15.327Z,60
2016-03-09T12:28:15.392Z,60
2016-03-09T12:29:15.286Z,60
2016-03-09T12:30:15.288Z,60
2016-03-09T12:31:15.244Z,60
2016-03-09T12:32:15.200Z,65
2016-03-09T12:33:15.171Z,60
2016-03-09T12:34:15.189Z,65
2016-03-09T12:35:15.145Z,65
2016-03-09T12:36:15.117Z,65
2016-03-09T12:37:15.089Z,65
2016-03-09T12:38:15.106Z,65
2016-03-09T12:39:15.047Z,65
2016-03-09T12:40:14.925Z,65
2016-03-09T12:41:15.020Z,65
2016-03-09T12:42:14.977Z,65
2016-03-09T12:43:14.980Z,65
2016-03-09T12:44:14.983Z,65
2016-03-09T12:45:14.891Z,65
2016-03-09T12:46:14.909Z,65
2016-03-09T12:47:14.866Z,70
2016-03-09T12:48:14.852Z,55
2016-03-09T12:49:14.839Z,70
2016-03-09T12:50:14.795Z,70
2016-03-09T12:51:14.782Z,70
2016-03-09T12:52:14.988Z,70
2016-03-09T12:53:14.724Z,75
2016-03-09T12:54:14.728Z,70
2016-03-09T12:55:14.668Z,75
2016-03-09T12:56:14.671Z,75
2016-03-09T12:57:14.861Z,65
2016-03-09T12:58:14.645Z,75
2016-03-09T12:59:14.616Z,80
2016-03-09T13:00:14.604Z,75
2016-03-09T13:01:14.559Z,80
2016-03-09T13:02:14.546Z,80
2016-03-09T13:03:14.501Z,80
2016-03-09T13:04:14.489Z,85
2016-03-09T13:05:14.507Z,85
2016-03-09T13:06:14.447Z,85
2016-03-09T13:07:14.435Z,80
2016-03-09T13:08:14.281Z,80
2016-03-09T13:09:14.580Z,80
2016-03-09T13:10:14.520Z,80
2016-03-09T13:11:14.367Z,80
2016-03-09T13:12:14.323Z,85
2016-03-09T13:13:14.294Z,90
2016-03-09T13:14:14.297Z,80
2016-03-09T13:15:14.269Z,95
2016-03-09T13:16:14.255Z,50
2016-03-09T13:17:14.290Z,70
2016-03-09T13:18:14.480Z,75
2016-03-09T13:19:14.155Z,80
2016-03-09T13:20:14.470Z,80
2016-03-09T13:21:14.113Z,75
2016-03-09T13:22:13.944Z,75
2016-03-09T13:23:14.133Z,75
2016-03-09T13:24:14.043Z,75
2016-03-09T13:25:14.171Z,75
2016-03-09T13:26:14.001Z,75
2016-03-09T13:27:13.974Z,75
2016-03-09T13:28:13.991Z,75
2016-03-09T13:29:13.947Z,75
2016-03-09T13:30:13.934Z,70
2016-03-09T13:31:13.968Z,75
2016-03-09T13:32:13.877Z,75
2016-03-09T13:33:13.832Z,70
2016-03-09T13:34:13.864Z,70
2016-03-09T13:35:13.808Z,75
2016-03-09T13:36:13.766Z,75
2016-03-09T13:37:13.726Z,70
2016-03-09T13:38:13.685Z,75
2016-03-09T13:39:13.646Z,70
2016-03-09T13:40:13.472Z,70
2016-03-09T13:41:13.610Z,70
2016-03-09T13:42:13.563Z,70
2016-03-09T13:43:13.419Z,75
2016-03-09T13:44:13.528Z,70
2016-03-09T13:45:13.514Z,70
2016-03-09T13:46:13.515Z,65
2016-03-09T13:47:13.656Z,65
2016-03-09T13:48:13.485Z,65
2016-03-09T13:49:13.424Z,65
2016-03-09T13:50:13.410Z,65
2016-03-09T13:51:13.397Z,65
2016-03-09T13:52:13.352Z,65
2016-03-09T13:53:13.337Z,65
2016-03-09T13:54:13.324Z,65
2016-03-09T13:55:13.281Z,65
2016-03-09T13:56:13.251Z,65
2016-03-09T13:57:13.254Z,65
2016-03-09T13:58:13.226Z,65
2016-03-09T13:59:13.213Z,65
2016-03-09T14:00:13.184Z,65
2016-03-09T14:01:13.156Z,60
2016-03-09T14:02:13.142Z,60
2016-03-09T14:03:13.129Z,65
2016-03-09T14:04:13.085Z,65
2016-03-09T14:05:13.072Z,65
2016-03-09T14:06:13.310Z,65
2016-03-09T14:07:13.062Z,65
2016-03-09T14:08:13.018Z,60
2016-03-09T14:09:13.458Z,60
2016-03-09T14:10:12.960Z,60
2016-03-09T14:11:13.057Z,60
2016-03-09T14:12:12.998Z,60
2016-03-09T14:13:12.891Z,60
2016-03-09T14:14:12.862Z,60
2016-03-09T14:15:12.865Z,60
2016-03-09T14:16:12.852Z,60
2016-03-09T14:17:12.807Z,60
2016-03-09T14:18:12.843Z,60
2016-03-09T14:19:12.798Z,60
2016-03-09T14:20:12.769Z,55
2016-03-09T14:21:12.740Z,55
2016-03-09T14:22:12.900Z,55
2016-03-09T14:23:12.699Z,55
2016-03-09T14:24:12.748Z,55
2016-03-09T14:25:12.720Z,55
2016-03-09T14:26:12.661Z,55
2016-03-09T14:27:12.631Z,55
2016-03-09T14:28:12.573Z,55
2016-03-09T14:29:12.575Z,55
2016-03-09T14:30:12.577Z,55
2016-03-09T14:31:12.517Z,50
2016-03-09T14:32:12.520Z,55